Terminal Aerodrome Forecast
Issued by NWS San Angelo, TX

Home | Current Version | Previous Version | Text Only | Print | Product List | Glossary On
Versions: 1 2 3 4 5 6 7 8 9 10 11 12 13 14 15
000
FTUS44 KSJT 212300
TAFABI
TAF
KABI 212331Z 2200/2224 16008KT P6SM SCT035
     FM220400 15009KT 6SM -DZ BKN018
     FM220600 16012KT 6SM -SHRA BKN009 WS020/18035KT
     FM221300 17011KT 4SM -RA BKN005
     FM222000 18010KT P6SM BKN014=

USA.gov is the U.S. government's official web portal to all federal, state and local government web resources and services.